createdAt,value
2023-05-19T00:02:01.605Z,3.70
2023-05-19T00:04:28.892Z,3.22
2023-05-19T00:06:58.275Z,3.13
2023-05-19T00:09:25.544Z,3.10
2023-05-19T00:11:52.588Z,3.10
2023-05-19T00:14:20.601Z,3.45
2023-05-19T00:16:48.277Z,3.30
2023-05-19T00:19:16.996Z,3.25
2023-05-19T00:21:44.277Z,3.13
2023-05-19T00:24:11.215Z,3.53
2023-05-19T00:26:38.181Z,3.28
2023-05-19T00:29:06.985Z,3.13
2023-05-19T00:31:34.123Z,3.00
2023-05-19T00:34:01.432Z,3.33
2023-05-19T00:36:28.840Z,3.65
2023-05-19T00:38:56.359Z,3.30
2023-05-19T00:41:23.241Z,3.75
2023-05-19T00:43:51.280Z,3.20
2023-05-19T00:46:19.614Z,3.33
2023-05-19T00:48:46.703Z,3.33
2023-05-19T00:51:16.783Z,3.17
2023-05-19T00:53:49.062Z,3.88
2023-05-19T00:56:16.877Z,3.83
2023-05-19T00:58:44.586Z,3.60
2023-05-19T01:01:12.339Z,3.13
2023-05-19T01:03:40.949Z,3.35
2023-05-19T01:06:08.246Z,3.80
2023-05-19T01:08:37.520Z,3.17
2023-05-19T01:11:06.752Z,3.50
2023-05-19T01:13:35.603Z,3.92
2023-05-19T01:16:40.477Z,3.78
2023-05-19T01:19:26.439Z,3.50
2023-05-19T01:22:13.192Z,3.60
2023-05-19T01:25:04.431Z,3.70
2023-05-19T01:28:02.214Z,3.05
2023-05-19T01:30:35.220Z,3.55
2023-05-19T01:33:06.827Z,3.00
2023-05-19T01:35:36.739Z,3.30
2023-05-19T01:38:05.313Z,3.22
2023-05-19T01:40:33.770Z,3.60
2023-05-19T01:43:02.582Z,3.10
2023-05-19T01:45:31.444Z,3.50
2023-05-19T01:48:01.163Z,3.50
2023-05-19T01:50:28.912Z,3.60
2023-05-19T01:52:55.945Z,3.83
2023-05-19T01:55:23.864Z,3.10
2023-05-19T01:58:02.677Z,3.80
2023-05-19T02:00:32.787Z,3.67
2023-05-19T02:03:15.025Z,4.03
2023-05-19T02:05:51.177Z,3.80
2023-05-19T02:08:23.289Z,4.20
2023-05-19T02:11:02.783Z,4.20
2023-05-19T02:13:34.096Z,3.97
2023-05-19T02:16:05.242Z,3.88
2023-05-19T02:18:35.722Z,4.30
2023-05-19T02:21:02.994Z,4.18
2023-05-19T02:23:29.887Z,3.60
2023-05-19T02:25:57.518Z,3.75
2023-05-19T02:28:28.387Z,3.33
2023-05-19T02:30:55.417Z,4.07
2023-05-19T02:33:24.656Z,4.15
2023-05-19T02:35:51.631Z,4.43
2023-05-19T02:38:18.747Z,3.58
2023-05-19T02:40:45.612Z,4.35
2023-05-19T02:43:12.460Z,4.43
2023-05-19T02:45:40.572Z,4.05
2023-05-19T02:48:12.600Z,4.20
2023-05-19T02:50:39.734Z,4.70
2023-05-19T02:53:06.698Z,5.15
2023-05-19T02:55:33.519Z,4.15
2023-05-19T02:58:00.492Z,4.40
2023-05-19T03:00:27.467Z,4.32
2023-05-19T03:02:54.630Z,5.05
2023-05-19T03:05:21.732Z,4.85
2023-05-19T03:07:48.564Z,4.60
2023-05-19T03:10:15.578Z,4.50
2023-05-19T03:12:42.421Z,3.95
2023-05-19T03:15:09.740Z,4.60
2023-05-19T03:17:36.786Z,4.00
2023-05-19T03:20:05.394Z,4.20
2023-05-19T03:22:32.509Z,4.47
2023-05-19T03:24:59.368Z,4.32
2023-05-19T03:27:26.335Z,4.32
2023-05-19T03:29:53.971Z,4.22
2023-05-19T03:32:21.769Z,4.43
2023-05-19T03:34:48.638Z,4.38
2023-05-19T03:37:17.352Z,4.20
2023-05-19T03:39:44.365Z,3.88
2023-05-19T03:42:11.223Z,3.90
2023-05-19T03:44:38.130Z,4.10
2023-05-19T03:47:05.322Z,3.63
2023-05-19T03:49:47.301Z,3.10
2023-05-19T03:52:38.565Z,3.03
2023-05-19T03:55:14.748Z,3.00
2023-05-19T03:57:41.921Z,3.38
2023-05-19T04:00:11.401Z,3.58
2023-05-19T04:02:41.385Z,3.40
2023-05-19T04:05:08.597Z,4.18
2023-05-19T04:07:37.295Z,4.15
2023-05-19T04:10:05.692Z,3.60
2023-05-19T04:12:33.011Z,4.10
2023-05-19T04:15:00.031Z,3.28
2023-05-19T04:17:27.849Z,3.88
2023-05-19T04:19:55.570Z,4.13
2023-05-19T04:22:22.650Z,5.38
2023-05-19T04:24:51.820Z,5.13
2023-05-19T04:27:19.679Z,5.03
2023-05-19T04:29:48.291Z,5.30
2023-05-19T04:32:17.676Z,5.20
2023-05-19T04:34:47.834Z,4.30
2023-05-19T04:37:24.182Z,5.45
2023-05-19T04:39:52.487Z,5.35
2023-05-19T04:42:20.781Z,5.35
2023-05-19T04:44:51.749Z,6.00
2023-05-19T04:47:21.772Z,5.28
2023-05-19T04:49:49.438Z,5.57
2023-05-19T04:52:21.725Z,4.90
2023-05-19T04:54:48.812Z,5.55
2023-05-19T04:57:15.687Z,5.88
2023-05-19T04:59:42.721Z,6.35
2023-05-19T05:02:10.570Z,6.68
2023-05-19T05:04:42.441Z,6.25
2023-05-19T05:07:10.159Z,6.03
2023-05-19T05:09:37.858Z,5.88
2023-05-19T05:12:07.556Z,5.85
2023-05-19T05:14:36.080Z,6.20
2023-05-19T05:17:03.845Z,5.95
2023-05-19T05:19:32.642Z,6.43
2023-05-19T05:22:00.363Z,6.85
2023-05-19T05:24:27.663Z,6.78
2023-05-19T05:26:59.370Z,6.80
2023-05-19T05:29:26.586Z,6.63
2023-05-19T05:31:54.142Z,6.65
2023-05-19T05:34:21.986Z,7.70
2023-05-19T05:36:48.958Z,6.93
2023-05-19T05:39:16.073Z,7.28
2023-05-19T05:41:45.058Z,6.78
2023-05-19T05:44:12.802Z,7.55
2023-05-19T05:46:42.119Z,7.45
2023-05-19T05:49:09.835Z,7.82
2023-05-19T05:51:37.183Z,8.23
2023-05-19T05:54:07.039Z,7.25
2023-05-19T05:56:41.256Z,8.10
2023-05-19T05:59:09.167Z,7.07
2023-05-19T06:01:36.783Z,7.55
2023-05-19T06:04:08.042Z,7.28
2023-05-19T06:06:36.051Z,7.43
2023-05-19T06:09:03.073Z,7.75
2023-05-19T06:11:29.993Z,7.65
2023-05-19T06:13:58.778Z,7.20
2023-05-19T06:16:55.036Z,7.82
2023-05-19T06:19:22.182Z,7.85
2023-05-19T06:21:49.170Z,7.32
2023-05-19T06:24:16.006Z,7.70
2023-05-19T06:26:42.851Z,7.72
2023-05-19T06:29:09.869Z,7.78
2023-05-19T06:31:37.647Z,6.53
2023-05-19T06:34:12.401Z,7.43
2023-05-19T06:36:41.392Z,7.90
2023-05-19T06:39:09.010Z,7.55
2023-05-19T06:41:36.437Z,7.50
2023-05-19T06:44:04.475Z,7.60
2023-05-19T06:46:33.571Z,7.22
2023-05-19T06:49:00.656Z,7.50
2023-05-19T06:51:31.428Z,7.28
2023-05-19T06:53:59.876Z,7.72
2023-05-19T06:56:27.606Z,7.80
2023-05-19T06:58:54.526Z,7.10
2023-05-19T07:01:27.958Z,7.00
2023-05-19T07:03:56.381Z,7.03
2023-05-19T07:06:23.300Z,7.28
2023-05-19T07:08:51.197Z,7.60
2023-05-19T07:11:18.732Z,6.65
2023-05-19T07:13:46.068Z,6.82
2023-05-19T07:16:16.732Z,6.95
2023-05-19T07:18:50.621Z,6.93
2023-05-19T07:21:17.933Z,7.22
2023-05-19T07:23:45.027Z,6.68
2023-05-19T07:26:12.058Z,6.60
2023-05-19T07:28:44.702Z,6.72
2023-05-19T07:31:11.548Z,7.07
2023-05-19T07:33:38.399Z,7.05
2023-05-19T07:36:05.476Z,6.35
2023-05-19T07:38:34.714Z,6.40
2023-05-19T07:41:03.039Z,6.50
2023-05-19T07:43:30.221Z,6.18
2023-05-19T07:45:57.361Z,7.38
2023-05-19T07:48:25.821Z,6.07
2023-05-19T07:50:53.136Z,5.70
2023-05-19T07:53:20.789Z,6.50
2023-05-19T07:55:47.854Z,5.90
2023-05-19T07:58:29.881Z,6.53
2023-05-19T08:01:00.522Z,6.95
2023-05-19T08:03:27.848Z,5.63
2023-05-19T08:05:55.086Z,6.10
2023-05-19T08:08:22.009Z,5.45
2023-05-19T08:10:49.074Z,5.18
2023-05-19T08:13:15.995Z,5.50
2023-05-19T08:15:43.476Z,5.38
2023-05-19T08:18:16.172Z,4.35
2023-05-19T08:20:42.955Z,4.93
2023-05-19T08:23:09.943Z,4.50
2023-05-19T08:25:36.745Z,3.47
2023-05-19T08:28:03.807Z,3.30
2023-05-19T08:30:30.898Z,3.78
2023-05-19T08:32:58.170Z,3.25
2023-05-19T08:35:25.139Z,3.05
2023-05-19T08:37:52.007Z,2.53
2023-05-19T08:40:19.718Z,2.45
2023-05-19T08:42:47.021Z,3.08
2023-05-19T08:45:14.229Z,2.47
2023-05-19T08:47:47.452Z,2.38
2023-05-19T08:50:24.841Z,2.72
2023-05-19T08:53:01.622Z,3.50
2023-05-19T08:55:31.714Z,3.00
2023-05-19T08:58:01.293Z,3.00
2023-05-19T09:00:29.726Z,3.20
2023-05-19T09:03:00.399Z,3.47
2023-05-19T09:05:28.495Z,2.83
2023-05-19T09:07:55.773Z,2.30
2023-05-19T09:10:22.916Z,2.33
2023-05-19T09:12:50.194Z,2.03
2023-05-19T09:15:20.756Z,2.90
2023-05-19T09:17:48.126Z,2.88
2023-05-19T09:20:16.962Z,2.70
2023-05-19T09:22:47.461Z,2.60
2023-05-19T09:25:23.998Z,2.90
2023-05-19T09:27:51.178Z,2.88
2023-05-19T09:30:18.463Z,3.13
2023-05-19T09:32:48.368Z,2.50
2023-05-19T09:35:20.212Z,2.55
2023-05-19T09:37:47.261Z,2.55
2023-05-19T09:40:15.798Z,2.58
2023-05-19T09:42:44.131Z,2.40
2023-05-19T09:45:11.487Z,2.90
2023-05-19T09:47:40.439Z,2.90
2023-05-19T09:50:09.671Z,2.55
2023-05-19T09:52:43.652Z,2.20
2023-05-19T09:55:12.921Z,2.60
2023-05-19T09:57:40.813Z,2.33
2023-05-19T10:00:15.142Z,2.47
2023-05-19T10:02:44.134Z,2.70
2023-05-19T10:05:20.470Z,2.40
2023-05-19T10:07:51.617Z,2.25
2023-05-19T10:10:22.313Z,2.60
2023-05-19T10:12:49.822Z,2.30
2023-05-19T10:15:21.432Z,2.58
2023-05-19T10:17:51.302Z,2.65
2023-05-19T10:20:18.375Z,2.63
2023-05-19T10:22:46.620Z,3.20
2023-05-19T10:25:15.662Z,2.45
2023-05-19T10:27:50.155Z,2.83
2023-05-19T10:30:39.667Z,2.80
2023-05-19T10:33:10.390Z,2.40
2023-05-19T10:35:58.457Z,2.58
2023-05-19T10:38:56.807Z,2.00
2023-05-19T10:41:55.463Z,2.20
2023-05-19T10:45:18.533Z,2.65
2023-05-19T10:47:46.146Z,2.55
2023-05-19T10:50:13.284Z,2.83
2023-05-19T10:52:40.945Z,2.83
2023-05-19T10:55:10.197Z,2.30
2023-05-19T10:57:37.193Z,2.15
2023-05-19T11:00:25.936Z,2.63
2023-05-19T11:02:56.426Z,2.63
2023-05-19T11:05:29.271Z,2.95
2023-05-19T11:08:06.249Z,2.47
2023-05-19T11:10:33.561Z,2.70
2023-05-19T11:13:01.072Z,3.13
2023-05-19T11:15:28.797Z,2.50
2023-05-19T11:17:56.217Z,2.80
2023-05-19T11:20:34.666Z,3.28
2023-05-19T11:23:21.099Z,2.33
2023-05-19T11:25:51.346Z,2.20
2023-05-19T11:29:21.740Z,2.20
2023-05-19T11:31:54.139Z,2.53
2023-05-19T11:34:26.127Z,2.88
2023-05-19T11:36:53.449Z,2.22
2023-05-19T11:39:26.111Z,2.80
2023-05-19T11:41:55.714Z,2.80
2023-05-19T11:44:22.655Z,2.50
2023-05-19T11:46:51.149Z,2.50
2023-05-19T11:49:23.549Z,2.47
2023-05-19T11:51:50.578Z,2.28
2023-05-19T11:54:19.265Z,2.80
2023-05-19T11:56:46.165Z,2.80
2023-05-19T11:59:13.082Z,3.30
2023-05-19T12:01:40.071Z,2.67
2023-05-19T12:04:10.549Z,3.20
2023-05-19T12:06:37.641Z,2.53
2023-05-19T12:09:05.643Z,2.78
2023-05-19T12:11:32.589Z,2.92
2023-05-19T12:13:59.662Z,2.65
2023-05-19T12:16:36.720Z,2.60
2023-05-19T12:19:07.208Z,3.00
2023-05-19T12:21:34.584Z,3.03
2023-05-19T12:24:02.087Z,2.92
2023-05-19T12:26:29.098Z,3.10
2023-05-19T12:29:21.180Z,2.85
2023-05-19T12:31:48.299Z,2.92
2023-05-19T12:34:15.918Z,2.80
2023-05-19T12:36:43.025Z,2.92
2023-05-19T12:39:14.433Z,2.95
2023-05-19T12:41:45.351Z,2.85
2023-05-19T12:44:22.934Z,2.95
2023-05-19T12:46:52.366Z,2.80
2023-05-19T12:49:25.048Z,3.20
2023-05-19T12:51:53.559Z,2.65
2023-05-19T12:54:29.265Z,2.65
2023-05-19T12:57:10.305Z,2.55
2023-05-19T13:00:00.931Z,2.67
2023-05-19T13:02:28.097Z,2.78
2023-05-19T13:04:55.054Z,3.13
2023-05-19T13:07:22.826Z,2.80
2023-05-19T13:09:55.252Z,2.67
2023-05-19T13:12:22.292Z,2.80
2023-05-19T13:14:57.610Z,2.90
2023-05-19T13:17:28.022Z,3.05
2023-05-19T13:20:22.133Z,2.80
2023-05-19T13:22:49.605Z,3.08
2023-05-19T13:25:18.565Z,2.90
2023-05-19T13:27:48.022Z,3.58
2023-05-19T13:30:16.309Z,2.40
2023-05-19T13:32:43.238Z,3.15
2023-05-19T13:35:11.006Z,3.05
2023-05-19T13:37:39.611Z,3.13
2023-05-19T13:40:07.453Z,2.63
2023-05-19T13:42:35.145Z,2.58
2023-05-19T13:45:03.048Z,2.60
2023-05-19T13:47:30.196Z,2.53
2023-05-19T13:50:12.471Z,2.45
2023-05-19T13:52:39.619Z,2.83
2023-05-19T13:55:07.592Z,2.50
2023-05-19T13:57:35.288Z,2.60
2023-05-19T14:00:04.092Z,2.72
2023-05-19T14:02:40.097Z,3.03
2023-05-19T14:05:08.106Z,2.70
2023-05-19T14:07:35.941Z,2.83
2023-05-19T14:10:05.583Z,2.25
2023-05-19T14:12:41.625Z,2.15
2023-05-19T14:15:22.300Z,2.38
2023-05-19T14:17:49.269Z,2.67
2023-05-19T14:20:16.281Z,2.72
2023-05-19T14:22:43.170Z,2.70
2023-05-19T14:25:10.135Z,2.67
2023-05-19T14:27:37.211Z,2.65
2023-05-19T14:30:04.401Z,2.75
2023-05-19T14:32:31.355Z,2.63
2023-05-19T14:34:58.631Z,2.80
2023-05-19T14:37:28.863Z,2.58
2023-05-19T14:39:58.275Z,2.63
2023-05-19T14:42:25.567Z,2.50
2023-05-19T14:44:52.480Z,2.50
2023-05-19T14:47:19.361Z,2.63
2023-05-19T14:50:11.271Z,2.85
2023-05-19T14:52:38.204Z,2.38
2023-05-19T14:55:05.528Z,2.15
2023-05-19T14:57:32.368Z,2.47
2023-05-19T15:00:26.318Z,2.45
2023-05-19T15:02:54.007Z,2.15
2023-05-19T15:05:23.172Z,2.20
2023-05-19T15:07:50.610Z,2.20
2023-05-19T15:10:20.745Z,2.58
2023-05-19T15:12:47.818Z,2.03
2023-05-19T15:15:17.982Z,2.28
2023-05-19T15:17:46.979Z,2.20
2023-05-19T15:20:14.043Z,2.50
2023-05-19T15:22:41.112Z,2.17
2023-05-19T15:25:09.114Z,2.20
2023-05-19T15:27:36.441Z,2.20
2023-05-19T15:30:04.833Z,2.30
2023-05-19T15:32:32.005Z,2.30
2023-05-19T15:34:58.986Z,2.65
2023-05-19T15:37:25.900Z,2.00
2023-05-19T15:39:54.902Z,2.28
2023-05-19T15:42:21.860Z,2.42
2023-05-19T15:44:48.789Z,2.40
2023-05-19T15:47:15.916Z,2.67
2023-05-19T15:49:43.179Z,2.20
2023-05-19T15:52:10.076Z,2.50
2023-05-19T15:54:36.915Z,2.58
2023-05-19T15:57:03.959Z,2.22
2023-05-19T15:59:31.444Z,2.05
2023-05-19T16:01:58.511Z,2.30
2023-05-19T16:04:25.553Z,2.30
2023-05-19T16:06:52.454Z,2.22
2023-05-19T16:09:24.597Z,2.42
2023-05-19T16:11:51.473Z,2.17
2023-05-19T16:14:18.428Z,2.25
2023-05-19T16:16:45.409Z,2.55
2023-05-19T16:19:12.664Z,2.35
2023-05-19T16:21:39.661Z,2.65
2023-05-19T16:24:06.720Z,2.72
2023-05-19T16:26:34.512Z,2.13
2023-05-19T16:29:08.504Z,2.40
2023-05-19T16:31:35.380Z,2.80
2023-05-19T16:34:02.402Z,2.17
2023-05-19T16:36:29.311Z,2.22
2023-05-19T16:38:56.806Z,2.50
2023-05-19T16:41:23.743Z,2.70
2023-05-19T16:43:50.660Z,2.35
2023-05-19T16:46:17.523Z,2.50
2023-05-19T16:48:44.460Z,2.42
2023-05-19T16:51:11.314Z,2.38
2023-05-19T16:53:39.787Z,2.40
2023-05-19T16:56:08.080Z,2.30
2023-05-19T16:58:35.060Z,2.35
2023-05-19T17:01:03.239Z,2.50
2023-05-19T17:03:32.039Z,2.33
2023-05-19T17:05:59.087Z,2.70
2023-05-19T17:08:26.258Z,2.60
2023-05-19T17:10:53.072Z,2.30
2023-05-19T17:13:19.960Z,2.30
2023-05-19T17:15:52.630Z,2.60
2023-05-19T17:21:33.750Z,2.30
2023-05-19T17:24:00.977Z,2.33
2023-05-19T17:26:27.928Z,2.70
2023-05-19T17:28:55.600Z,2.45
2023-05-19T17:31:22.506Z,2.50
2023-05-19T17:33:49.457Z,2.60
2023-05-19T17:36:16.664Z,2.95
2023-05-19T17:38:43.652Z,2.63
2023-05-19T17:41:10.922Z,2.60
2023-05-19T17:43:39.109Z,2.58
2023-05-19T17:46:06.521Z,2.67
2023-05-19T17:48:39.751Z,2.97
2023-05-19T17:51:09.398Z,2.53
2023-05-19T17:53:36.717Z,2.55
2023-05-19T17:56:06.592Z,2.67
2023-05-19T17:58:39.527Z,2.50
2023-05-19T18:01:06.789Z,2.90
2023-05-19T18:03:34.379Z,3.08
2023-05-19T18:06:02.200Z,3.20
2023-05-19T18:08:31.199Z,2.63
2023-05-19T18:10:58.433Z,3.00
2023-05-19T18:13:26.100Z,2.72
2023-05-19T18:15:53.168Z,3.38
2023-05-19T18:18:25.640Z,2.95
2023-05-19T18:20:52.468Z,2.75
2023-05-19T18:23:20.492Z,2.70
2023-05-19T18:25:53.296Z,2.70
2023-05-19T18:28:25.936Z,2.55
2023-05-19T18:31:07.661Z,3.00
2023-05-19T18:33:34.852Z,2.63
2023-05-19T18:36:05.980Z,2.40
2023-05-19T18:39:13.431Z,2.50
2023-05-19T18:41:42.692Z,2.88
2023-05-19T18:44:09.678Z,2.90
2023-05-19T18:46:36.588Z,3.17
2023-05-19T18:49:04.400Z,2.85
2023-05-19T18:51:33.431Z,2.58
2023-05-19T18:54:00.466Z,2.85
2023-05-19T18:56:31.198Z,2.80
2023-05-19T18:59:13.511Z,2.78
2023-05-19T19:01:40.458Z,2.90
2023-05-19T19:04:07.508Z,2.95
2023-05-19T19:06:34.586Z,3.45
2023-05-19T19:09:21.446Z,2.83
2023-05-19T19:11:48.396Z,2.83
2023-05-19T19:14:15.301Z,3.20
2023-05-19T19:16:42.233Z,3.22
2023-05-19T19:19:09.954Z,3.20
2023-05-19T19:21:37.045Z,3.30
2023-05-19T19:24:04.196Z,2.90
2023-05-19T19:26:31.064Z,2.85
2023-05-19T19:28:58.682Z,2.75
2023-05-19T19:31:33.244Z,2.90
2023-05-19T19:34:03.701Z,2.90
2023-05-19T19:36:31.934Z,2.72
2023-05-19T19:39:04.578Z,3.13
2023-05-19T19:41:33.323Z,2.78
2023-05-19T19:44:00.450Z,2.60
2023-05-19T19:46:27.419Z,2.83
2023-05-19T19:49:00.482Z,3.00
2023-05-19T19:51:28.217Z,2.80
2023-05-19T19:53:55.072Z,3.20
2023-05-19T19:56:24.581Z,3.10
2023-05-19T19:59:32.009Z,2.55
2023-05-19T20:01:58.896Z,3.00
2023-05-19T20:04:26.557Z,3.28
2023-05-19T20:06:53.579Z,2.95
2023-05-19T20:09:40.789Z,3.08
2023-05-19T20:12:07.850Z,3.83
2023-05-19T20:14:34.680Z,3.50
2023-05-19T20:17:02.103Z,3.60
2023-05-19T20:23:38.875Z,4.00
2023-05-19T20:28:42.501Z,4.55
2023-05-19T20:31:09.484Z,4.20
2023-05-19T20:33:36.362Z,4.43
2023-05-19T20:36:03.424Z,4.35
2023-05-19T20:39:26.553Z,4.05
2023-05-19T20:41:53.517Z,3.83
2023-05-19T20:44:20.669Z,4.68
2023-05-19T20:46:47.836Z,4.50
2023-05-19T20:49:14.709Z,4.30
2023-05-19T20:51:41.542Z,4.25
2023-05-19T20:54:08.418Z,4.22
2023-05-19T20:56:35.369Z,4.03
2023-05-19T20:59:12.851Z,4.13
2023-05-19T21:01:39.894Z,3.90
2023-05-19T21:04:07.871Z,3.78
2023-05-19T21:06:34.910Z,4.13
2023-05-19T21:09:37.885Z,4.20
2023-05-19T21:12:05.100Z,4.13
2023-05-19T21:14:32.039Z,3.90
2023-05-19T21:16:59.475Z,3.60
2023-05-19T21:20:07.050Z,4.03
2023-05-19T21:22:35.730Z,3.47
2023-05-19T21:25:02.826Z,3.88
2023-05-19T21:27:32.198Z,3.97
2023-05-19T21:30:05.119Z,4.15
2023-05-19T21:32:32.212Z,3.92
2023-05-19T21:34:59.985Z,3.60
2023-05-19T21:37:26.847Z,4.53
2023-05-19T21:39:53.767Z,4.30
2023-05-19T21:42:20.651Z,4.03
2023-05-19T21:44:47.550Z,3.60
2023-05-19T21:47:14.622Z,4.03
2023-05-19T21:49:41.524Z,3.85
2023-05-19T21:52:08.580Z,3.95
2023-05-19T21:54:36.214Z,4.20
2023-05-19T21:57:03.356Z,3.70
2023-05-19T21:59:35.823Z,4.13
2023-05-19T22:02:02.815Z,3.72
2023-05-19T22:04:32.674Z,3.70
2023-05-19T22:06:59.592Z,4.00
2023-05-19T22:09:32.165Z,3.75
2023-05-19T22:11:59.085Z,4.40
2023-05-19T22:14:26.428Z,4.38
2023-05-19T22:16:53.438Z,4.32
2023-05-19T22:19:20.470Z,4.07
2023-05-19T22:21:48.261Z,4.32
2023-05-19T22:24:18.425Z,3.72
2023-05-19T22:26:46.989Z,4.10
2023-05-19T22:29:16.588Z,4.30
2023-05-19T22:31:43.421Z,4.03
2023-05-19T22:34:12.648Z,3.83
2023-05-19T22:36:41.262Z,5.03
2023-05-19T22:39:08.126Z,3.72
2023-05-19T22:41:35.269Z,3.58
2023-05-19T22:44:02.322Z,4.07
2023-05-19T22:46:29.380Z,3.72
2023-05-19T22:48:56.447Z,3.80
2023-05-19T22:51:23.442Z,4.25
2023-05-19T22:53:50.327Z,3.63
2023-05-19T22:56:17.329Z,3.97
2023-05-19T22:58:44.188Z,4.03
2023-05-19T23:01:11.392Z,3.90
2023-05-19T23:03:38.243Z,3.70
2023-05-19T23:06:05.257Z,4.45
2023-05-19T23:08:32.100Z,3.80
2023-05-19T23:11:02.519Z,3.90
2023-05-19T23:13:31.261Z,4.20
2023-05-19T23:15:58.172Z,3.55
2023-05-19T23:18:25.202Z,4.13
2023-05-19T23:20:52.196Z,4.07
2023-05-19T23:23:20.130Z,3.83
2023-05-19T23:25:47.085Z,4.25
2023-05-19T23:28:14.008Z,3.97
2023-05-19T23:30:40.951Z,4.35
2023-05-19T23:33:07.815Z,3.58
2023-05-19T23:35:35.194Z,3.90
2023-05-19T23:38:02.286Z,4.10
2023-05-19T23:40:29.157Z,4.22
2023-05-19T23:42:56.079Z,3.85
2023-05-19T23:45:23.017Z,4.90
2023-05-19T23:47:50.060Z,3.92
2023-05-19T23:50:17.056Z,4.50
2023-05-19T23:52:43.917Z,4.43
2023-05-19T23:55:12.981Z,4.40
2023-05-19T23:57:39.851Z,4.03
